METAR/TAF

Belfast City Airport
BELFAST HARBOUR
Metar
EGAC 200550Z AUTO 18005KT 140V220 9999 BKN011/// 13/12 Q1025

05:50 UTC

Wind: 180° 5kt

Visibility: 9999 m

Sky: BKN 1100 ft

Temp: 13 deg C / 55.4 deg F

Dewpoint: 12 deg C / 53.6 deg F

Pressure: 1025 hPa

TAF
TAF EGAC 200502Z 2006/2015 21007KT 9999 BKN020 TEMPO 2006/2015 7000 -RADZ BKN012 PROB30 TEMPO 2006/2015 4000 -DZ BKN008
Belfast International Airport
BELFAST/ALDERGRO
Metar
EGAA 200550Z 21008KT 9999 BKN008 12/11 Q1025

05:50 UTC

Wind: 210° 8kt

Visibility: 9999 m

Sky: BKN 800 ft

Temp: 12 deg C / 53.6 deg F

Dewpoint: 11 deg C / 51.8 deg F

Pressure: 1025 hPa

TAF
TAF EGAA 200500Z 2006/2106 19008KT 9999 SCT008 BKN015 BECMG 2006/2009 OVC012 TEMPO 2006/2013 BKN008 PROB30 TEMPO 2006/2013 4000 DZ BECMG 2013/2016 OVC008 TEMPO 2013/2106 4000 -DZ BKN003
Print Friendly, PDF & Email